Time;durP1;ratioP1;P1;durP2;ratioP2;P2;SDS_P1;SDS_P2;PMS_P1;PMS_P2;Temp;Humidity;BMP_temperature;BMP_pressure;BME280_temperature;BME280_humidity;BME280_pressure;Samples;Min_cycle;Max_cycle;Signal;HPM_P1;HPM_P2
2023/01/19 00:00:49;;;;;;;;;;;2.60;99.90;;;;;;5017352;28;19913;-89
2023/01/19 00:03:16;;;;;;;;;;;2.60;99.90;;;;;;5035086;28;19913;-89
2023/01/19 00:05:42;;;;;;;;;;;2.80;99.90;;;;;;5017618;28;19909;-88
2023/01/19 00:08:15;;;;;;;;;;;2.80;99.90;;;;;;5017479;28;19910;-89
2023/01/19 00:10:41;;;;;;;;;;;2.90;99.90;;;;;;5017326;28;19916;-90
2023/01/19 00:13:07;;;;;;;;;;;3.00;99.90;;;;;;5017075;28;19910;-89
2023/01/19 00:15:32;;;;;;;;;;;3.00;99.90;;;;;;5016629;28;19932;-89
2023/01/19 00:17:57;;;;;;;;;;;3.00;99.90;;;;;;5034764;28;19913;-88
2023/01/19 00:20:23;;;;;;;;;;;3.00;99.90;;;;;;5017130;28;20405;-90
2023/01/19 00:22:49;;;;;;;;;;;3.00;99.90;;;;;;5016811;28;19909;-88
2023/01/19 00:25:15;;;;;;;;;;;3.00;99.90;;;;;;5017236;28;20282;-90
2023/01/19 00:27:41;;;;;;;;;;;3.00;99.90;;;;;;5016895;28;19909;-90
2023/01/19 00:30:07;;;;;;;;;;;3.00;99.90;;;;;;5016940;28;20007;-89
2023/01/19 00:32:32;;;;;;;;;;;2.90;99.90;;;;;;5016452;28;19909;-88
2023/01/19 00:34:58;;;;;;;;;;;2.90;99.90;;;;;;5034554;28;19910;-89
2023/01/19 00:37:23;;;;;;;;;;;2.80;99.90;;;;;;5017056;28;19987;-90
2023/01/19 00:39:49;;;;;;;;;;;2.80;99.90;;;;;;5016775;28;20255;-88
2023/01/19 00:44:58;;;;;;;;;;;2.70;99.90;;;;;;5034829;28;20009;-88
2023/01/19 00:47:24;;;;;;;;;;;2.80;99.90;;;;;;5016671;28;20504;-89
2023/01/19 00:49:49;;;;;;;;;;;2.80;99.90;;;;;;5016425;28;20402;-88
2023/01/19 00:52:15;;;;;;;;;;;2.80;99.90;;;;;;5016422;28;19917;-90
2023/01/19 00:54:40;;;;;;;;;;;2.80;99.90;;;;;;5016598;28;19916;-89
2023/01/19 00:57:06;;;;;;;;;;;2.80;99.90;;;;;;5016597;28;19913;-90
2023/01/19 00:59:31;;;;;;;;;;;2.80;99.90;;;;;;5034150;28;19916;-88
2023/01/19 01:01:57;;;;;;;;;;;2.90;99.90;;;;;;5033808;28;19959;-88
2023/01/19 01:04:22;;;;;;;;;;;3.00;99.90;;;;;;5016336;28;19995;-89
2023/01/19 01:06:47;;;;;;;;;;;3.00;99.90;;;;;;5034211;28;19920;-89
2023/01/19 01:09:13;;;;;;;;;;;3.00;99.90;;;;;;5016241;28;19909;-89
2023/01/19 01:11:39;;;;;;;;;;;3.00;99.90;;;;;;5015964;28;20275;-90
2023/01/19 01:14:05;;;;;;;;;;;3.00;99.90;;;;;;5033934;28;20020;-89
2023/01/19 01:16:30;;;;;;;;;;;2.90;99.90;;;;;;5033965;28;20395;-90
2023/01/19 01:18:56;;;;;;;;;;;2.80;99.90;;;;;;5016092;28;19916;-89
2023/01/19 01:21:22;;;;;;;;;;;2.80;99.90;;;;;;5015924;28;19909;-88
2023/01/19 01:23:48;;;;;;;;;;;2.80;99.90;;;;;;5016001;28;19956;-88
2023/01/19 01:26:13;;;;;;;;;;;2.70;99.90;;;;;;5016282;28;19948;-89
2023/01/19 01:28:38;;;;;;;;;;;2.90;99.90;;;;;;5033467;28;19916;-89
2023/01/19 01:31:04;;;;;;;;;;;2.90;99.90;;;;;;5015831;28;19978;-90
2023/01/19 01:33:29;;;;;;;;;;;2.90;99.90;;;;;;5015811;28;20335;-88
2023/01/19 01:35:55;;;;;;;;;;;3.00;99.90;;;;;;5033614;28;19909;-88
2023/01/19 01:38:20;;;;;;;;;;;3.00;99.90;;;;;;5015738;28;20000;-89
2023/01/19 01:40:46;;;;;;;;;;;3.00;99.90;;;;;;5015646;28;20366;-87
2023/01/19 01:43:12;;;;;;;;;;;3.00;99.90;;;;;;5033254;28;19909;-88
2023/01/19 01:45:38;;;;;;;;;;;3.10;99.90;;;;;;5015619;28;19909;-89
2023/01/19 01:48:07;;;;;;;;;;;3.00;99.90;;;;;;5015505;28;20394;-88
2023/01/19 01:50:35;;;;;;;;;;;2.90;99.90;;;;;;5015628;28;19952;-89
2023/01/19 01:53:04;;;;;;;;;;;2.90;99.90;;;;;;5015253;28;19913;-89
2023/01/19 01:55:30;;;;;;;;;;;2.80;99.90;;;;;;5015634;28;19916;-90
2023/01/19 01:57:57;;;;;;;;;;;2.70;99.90;;;;;;5015445;28;20412;-89
2023/01/19 02:00:23;;;;;;;;;;;2.70;99.90;;;;;;5015350;28;19909;-88
2023/01/19 02:02:53;;;;;;;;;;;2.70;99.90;;;;;;5032888;28;19909;-87
2023/01/19 02:05:27;;;;;;;;;;;2.60;99.90;;;;;;5033192;28;20003;-89
2023/01/19 02:13:33;;;;;;;;;;;2.60;99.90;;;;;;5033413;28;19954;-89
2023/01/19 02:16:02;;;;;;;;;;;2.60;99.90;;;;;;5033068;28;19978;-88
2023/01/19 02:18:28;;;;;;;;;;;2.50;99.90;;;;;;5015182;28;19913;-89
2023/01/19 02:21:05;;;;;;;;;;;2.50;99.90;;;;;;5032953;28;19909;-89
2023/01/19 02:23:37;;;;;;;;;;;2.50;99.90;;;;;;5015203;28;19916;-90
2023/01/19 02:26:03;;;;;;;;;;;2.50;99.90;;;;;;5015280;28;19955;-89
2023/01/19 02:28:28;;;;;;;;;;;2.40;99.90;;;;;;5014816;28;19971;-90
2023/01/19 02:30:54;;;;;;;;;;;2.40;99.90;;;;;;5014889;28;19913;-89
2023/01/19 02:33:20;;;;;;;;;;;2.40;99.90;;;;;;5015063;28;19956;-89
2023/01/19 02:35:46;;;;;;;;;;;2.30;99.90;;;;;;5015213;28;19909;-89
2023/01/19 02:38:12;;;;;;;;;;;2.30;99.90;;;;;;5014985;28;19964;-89
2023/01/19 02:40:39;;;;;;;;;;;2.30;99.90;;;;;;5036402;28;19916;-89
2023/01/19 02:43:07;;;;;;;;;;;2.30;99.90;;;;;;5018867;28;19913;-89
2023/01/19 02:45:32;;;;;;;;;;;2.30;99.90;;;;;;5019255;28;20346;-89
2023/01/19 02:47:58;;;;;;;;;;;2.30;99.90;;;;;;5018953;28;19953;-88
2023/01/19 02:50:45;;;;;;;;;;;2.30;99.90;;;;;;5019118;28;19916;-89
2023/01/19 02:53:29;;;;;;;;;;;2.30;99.90;;;;;;5036373;28;19992;-89
2023/01/19 02:56:14;;;;;;;;;;;2.30;99.90;;;;;;5036647;28;19929;-89
2023/01/19 02:58:51;;;;;;;;;;;2.30;99.90;;;;;;5035049;28;19913;-89
2023/01/19 03:01:31;;;;;;;;;;;2.30;99.90;;;;;;5018401;28;20179;-90
2023/01/19 03:04:03;;;;;;;;;;;2.30;99.90;;;;;;5018396;28;19909;-89
2023/01/19 03:06:31;;;;;;;;;;;2.30;99.90;;;;;;5018623;28;19968;-90
2023/01/19 03:09:12;;;;;;;;;;;2.30;99.90;;;;;;5018516;28;19909;-89
2023/01/19 03:11:39;;;;;;;;;;;2.30;99.90;;;;;;5018301;28;19917;-89
2023/01/19 03:14:13;;;;;;;;;;;2.50;99.90;;;;;;5036187;28;19972;-89
2023/01/19 03:16:44;;;;;;;;;;;2.60;99.90;;;;;;5018311;28;20016;-89
2023/01/19 03:19:13;;;;;;;;;;;2.60;99.90;;;;;;5036010;28;19913;-89
2023/01/19 03:21:41;;;;;;;;;;;2.60;99.90;;;;;;5018074;28;20351;-88
2023/01/19 03:24:07;;;;;;;;;;;2.60;99.90;;;;;;5018401;28;19916;-89
2023/01/19 03:26:37;;;;;;;;;;;2.50;99.90;;;;;;5018353;28;19909;-87
2023/01/19 03:29:05;;;;;;;;;;;2.60;99.90;;;;;;5018125;28;20287;-88
2023/01/19 03:31:31;;;;;;;;;;;2.70;99.90;;;;;;5017935;28;19909;-87
2023/01/19 03:34:00;;;;;;;;;;;2.80;99.90;;;;;;5034610;28;20289;-88
2023/01/19 03:36:28;;;;;;;;;;;2.90;99.90;;;;;;5035614;28;19942;-88
2023/01/19 03:38:54;;;;;;;;;;;3.00;99.90;;;;;;5018041;28;19916;-89
2023/01/19 03:41:20;;;;;;;;;;;3.00;99.90;;;;;;5017720;28;20283;-89
2023/01/19 03:43:47;;;;;;;;;;;2.90;99.90;;;;;;5017838;28;19916;-88
2023/01/19 03:46:16;;;;;;;;;;;2.80;99.90;;;;;;5017823;28;19919;-89
2023/01/19 03:48:42;;;;;;;;;;;2.70;99.90;;;;;;5017641;28;19924;-88
2023/01/19 03:51:08;;;;;;;;;;;2.70;99.90;;;;;;5016005;28;20281;-88
2023/01/19 03:53:34;;;;;;;;;;;2.70;99.90;;;;;;5017522;28;20283;-89
2023/01/19 03:55:59;;;;;;;;;;;2.70;99.90;;;;;;5035286;28;19909;-90
2023/01/19 03:58:25;;;;;;;;;;;2.80;99.90;;;;;;5017374;28;19974;-90
2023/01/19 04:00:50;;;;;;;;;;;2.80;99.90;;;;;;5017440;28;19916;-89
2023/01/19 04:03:16;;;;;;;;;;;2.90;99.90;;;;;;5034963;28;19909;-89
2023/01/19 04:05:42;;;;;;;;;;;2.90;99.90;;;;;;5017284;28;19915;-90
2023/01/19 04:08:08;;;;;;;;;;;2.90;99.90;;;;;;5017509;28;20418;-89
2023/01/19 04:10:34;;;;;;;;;;;2.90;99.90;;;;;;5017396;28;19909;-89
2023/01/19 04:13:00;;;;;;;;;;;2.90;99.90;;;;;;5034867;28;19978;-89
2023/01/19 04:15:26;;;;;;;;;;;3.00;99.90;;;;;;5017326;28;20580;-89
2023/01/19 04:17:52;;;;;;;;;;;3.00;99.90;;;;;;5017197;28;19914;-89
2023/01/19 04:20:17;;;;;;;;;;;3.00;99.90;;;;;;5034762;28;19955;-91
2023/01/19 04:22:43;;;;;;;;;;;3.00;99.90;;;;;;5016775;28;19913;-89
2023/01/19 04:25:09;;;;;;;;;;;3.10;99.90;;;;;;5016854;28;19910;-88
2023/01/19 04:27:35;;;;;;;;;;;3.10;99.90;;;;;;5034803;28;19913;-88
2023/01/19 04:30:00;;;;;;;;;;;3.20;99.90;;;;;;5016910;28;20009;-87
2023/01/19 04:32:26;;;;;;;;;;;3.20;99.90;;;;;;5016810;28;19909;-89
2023/01/19 04:34:51;;;;;;;;;;;3.30;99.90;;;;;;5016951;28;20252;-88
2023/01/19 04:37:17;;;;;;;;;;;3.30;99.90;;;;;;5017091;28;19913;-88
2023/01/19 04:39:42;;;;;;;;;;;3.30;99.90;;;;;;5016648;28;19909;-89
2023/01/19 04:42:08;;;;;;;;;;;3.30;99.90;;;;;;5034158;28;19914;-88
2023/01/19 04:44:33;;;;;;;;;;;3.20;99.90;;;;;;5016627;28;20318;-90
2023/01/19 04:46:59;;;;;;;;;;;3.10;99.90;;;;;;5016655;28;19958;-88
2023/01/19 04:49:24;;;;;;;;;;;3.10;99.90;;;;;;5016352;28;19925;-89
2023/01/19 04:51:52;;;;;;;;;;;3.10;99.90;;;;;;5033816;28;19909;-88
2023/01/19 04:54:18;;;;;;;;;;;3.10;99.90;;;;;;5016288;28;20267;-89
2023/01/19 04:56:43;;;;;;;;;;;3.10;99.90;;;;;;5033893;28;19920;-88
2023/01/19 04:59:09;;;;;;;;;;;3.20;99.90;;;;;;5016254;28;19909;-88
2023/01/19 05:01:34;;;;;;;;;;;3.20;99.90;;;;;;5015670;28;19913;-89
2023/01/19 05:04:00;;;;;;;;;;;3.20;99.90;;;;;;5016469;28;19952;-89
2023/01/19 05:06:26;;;;;;;;;;;3.20;99.90;;;;;;5016269;28;20398;-89
2023/01/19 05:08:51;;;;;;;;;;;3.20;99.90;;;;;;5033989;28;19909;-88
2023/01/19 05:11:17;;;;;;;;;;;3.30;99.90;;;;;;5016158;28;20003;-89
2023/01/19 05:13:42;;;;;;;;;;;3.20;99.90;;;;;;5016276;28;19909;-89
2023/01/19 05:16:08;;;;;;;;;;;3.20;99.90;;;;;;5016115;28;19991;-88
2023/01/19 05:18:35;;;;;;;;;;;3.10;99.90;;;;;;5016011;28;19916;-89
2023/01/19 05:21:04;;;;;;;;;;;3.10;99.90;;;;;;5015992;28;19999;-88
2023/01/19 05:23:31;;;;;;;;;;;3.10;99.90;;;;;;5016005;28;19909;-90
2023/01/19 05:25:59;;;;;;;;;;;2.90;99.90;;;;;;5033786;28;19958;-89
2023/01/19 05:28:28;;;;;;;;;;;2.80;99.90;;;;;;5033827;28;20270;-89
2023/01/19 05:30:54;;;;;;;;;;;2.70;99.90;;;;;;5015586;28;19952;-88
2023/01/19 05:33:20;;;;;;;;;;;2.60;99.90;;;;;;5015691;28;19945;-88
2023/01/19 05:35:48;;;;;;;;;;;2.50;99.90;;;;;;5033384;28;19911;-89
2023/01/19 05:38:13;;;;;;;;;;;2.50;99.90;;;;;;5015797;28;19913;-89
2023/01/19 05:40:39;;;;;;;;;;;2.40;99.90;;;;;;5015741;28;19909;-87
2023/01/19 05:43:04;;;;;;;;;;;2.40;99.90;;;;;;5015653;28;19913;-86
2023/01/19 05:45:30;;;;;;;;;;;2.30;99.90;;;;;;5015894;28;19971;-89
2023/01/19 05:47:55;;;;;;;;;;;2.20;99.90;;;;;;5015647;28;19909;-87
2023/01/19 05:50:20;;;;;;;;;;;2.10;99.90;;;;;;5033971;28;19917;-87
2023/01/19 05:52:46;;;;;;;;;;;2.00;99.90;;;;;;5015931;28;19910;-87
2023/01/19 05:55:12;;;;;;;;;;;1.90;99.90;;;;;;5033876;28;19952;-87
2023/01/19 05:57:37;;;;;;;;;;;1.80;99.90;;;;;;5015880;28;19913;-87
2023/01/19 06:00:04;;;;;;;;;;;1.70;99.90;;;;;;5016049;28;19909;-87
2023/01/19 06:02:29;;;;;;;;;;;1.70;99.90;;;;;;5015605;28;20278;-87
2023/01/19 06:04:55;;;;;;;;;;;1.70;99.90;;;;;;5015912;28;19909;-87
2023/01/19 06:07:21;;;;;;;;;;;1.60;99.90;;;;;;5033435;28;19940;-87
2023/01/19 06:09:46;;;;;;;;;;;1.60;99.90;;;;;;5015674;28;19909;-87
2023/01/19 06:12:12;;;;;;;;;;;1.60;99.90;;;;;;5015338;28;19909;-87
2023/01/19 06:14:37;;;;;;;;;;;1.70;99.90;;;;;;5015018;28;20389;-87
2023/01/19 06:17:04;;;;;;;;;;;1.60;99.90;;;;;;5015603;28;19913;-88
2023/01/19 06:19:30;;;;;;;;;;;1.50;99.90;;;;;;5015744;28;19913;-87
2023/01/19 06:21:56;;;;;;;;;;;1.60;99.90;;;;;;5015766;28;19924;-87
2023/01/19 06:24:22;;;;;;;;;;;1.60;99.90;;;;;;5015782;28;19913;-87
2023/01/19 06:26:48;;;;;;;;;;;1.60;99.90;;;;;;5016285;28;19917;-86
2023/01/19 06:29:14;;;;;;;;;;;1.60;99.90;;;;;;5033571;28;19913;-86
2023/01/19 06:31:42;;;;;;;;;;;1.60;99.90;;;;;;5015295;28;19909;-88
2023/01/19 06:34:16;;;;;;;;;;;1.50;99.90;;;;;;5033734;28;20008;-87
2023/01/19 06:36:50;;;;;;;;;;;1.50;99.90;;;;;;5015575;28;19917;-86
2023/01/19 06:39:15;;;;;;;;;;;1.50;99.90;;;;;;5015808;28;20359;-87
2023/01/19 06:41:41;;;;;;;;;;;1.60;99.90;;;;;;5015692;28;19909;-87
2023/01/19 06:44:15;;;;;;;;;;;1.60;99.90;;;;;;5033359;28;20363;-87
2023/01/19 06:46:40;;;;;;;;;;;1.50;99.90;;;;;;5033480;28;19932;-86
2023/01/19 06:49:15;;;;;;;;;;;1.60;99.90;;;;;;5015351;28;19917;-87
2023/01/19 06:51:40;;;;;;;;;;;1.60;99.90;;;;;;5015566;28;19913;-87
2023/01/19 06:54:06;;;;;;;;;;;1.70;99.90;;;;;;5015630;28;20306;-87
2023/01/19 06:56:31;;;;;;;;;;;1.70;99.90;;;;;;5033241;28;20000;-87
2023/01/19 06:58:57;;;;;;;;;;;1.70;99.90;;;;;;5015664;28;20004;-87
2023/01/19 07:01:22;;;;;;;;;;;1.70;99.90;;;;;;5015192;28;19916;-87
2023/01/19 07:03:48;;;;;;;;;;;1.70;99.90;;;;;;5015548;28;19910;-85
2023/01/19 07:06:16;;;;;;;;;;;1.60;99.90;;;;;;5015119;28;19913;-87
2023/01/19 07:08:41;;;;;;;;;;;1.60;99.90;;;;;;5032746;28;19916;-87
2023/01/19 07:11:13;;;;;;;;;;;1.60;99.90;;;;;;5032773;28;19909;-87
2023/01/19 07:13:39;;;;;;;;;;;1.70;99.90;;;;;;5015492;28;20383;-87
2023/01/19 07:16:11;;;;;;;;;;;1.60;99.90;;;;;;5015495;28;19913;-87
2023/01/19 07:18:37;;;;;;;;;;;1.60;99.90;;;;;;5032966;28;19913;-87
2023/01/19 07:21:05;;;;;;;;;;;1.60;99.90;;;;;;5015099;28;20004;-87
2023/01/19 07:23:31;;;;;;;;;;;1.70;99.90;;;;;;5015134;28;19924;-87
2023/01/19 07:25:57;;;;;;;;;;;1.70;99.90;;;;;;5017360;28;19984;-87
2023/01/19 07:28:23;;;;;;;;;;;1.70;99.90;;;;;;5018618;28;19913;-87
2023/01/19 07:30:52;;;;;;;;;;;1.70;99.90;;;;;;5036331;28;19996;-87
2023/01/19 07:33:17;;;;;;;;;;;1.80;99.90;;;;;;5018402;28;20274;-87
2023/01/19 07:35:47;;;;;;;;;;;1.80;99.90;;;;;;5018461;28;20101;-88
2023/01/19 07:38:12;;;;;;;;;;;1.90;99.90;;;;;;5035959;28;19917;-87
2023/01/19 07:40:38;;;;;;;;;;;1.90;99.90;;;;;;5018361;28;19909;-88
2023/01/19 07:43:03;;;;;;;;;;;1.90;99.90;;;;;;5018205;28;20321;-88
2023/01/19 07:45:29;;;;;;;;;;;1.90;99.90;;;;;;5035937;28;19909;-88
2023/01/19 07:47:55;;;;;;;;;;;1.90;99.90;;;;;;5018218;28;19909;-88
2023/01/19 07:50:23;;;;;;;;;;;2.00;99.90;;;;;;5017972;28;20279;-88
2023/01/19 07:52:51;;;;;;;;;;;1.90;99.90;;;;;;5017753;28;19956;-87
2023/01/19 07:55:17;;;;;;;;;;;2.00;99.90;;;;;;5017951;28;19909;-88
2023/01/19 07:57:42;;;;;;;;;;;2.00;99.90;;;;;;5017966;28;19962;-88
2023/01/19 08:00:08;;;;;;;;;;;2.00;99.90;;;;;;5017855;28;19909;-87
2023/01/19 08:02:34;;;;;;;;;;;1.90;99.90;;;;;;5017743;28;20413;-88
2023/01/19 08:05:00;;;;;;;;;;;2.00;99.90;;;;;;5017782;28;19909;-87
2023/01/19 08:07:26;;;;;;;;;;;1.90;99.90;;;;;;5017781;28;20047;-88
2023/01/19 08:09:51;;;;;;;;;;;2.00;99.90;;;;;;5017693;28;19909;-89
2023/01/19 08:12:17;;;;;;;;;;;2.00;99.90;;;;;;5017324;28;19916;-88
2023/01/19 08:14:42;;;;;;;;;;;2.10;99.90;;;;;;5017610;28;20493;-88
2023/01/19 08:17:11;;;;;;;;;;;2.10;99.90;;;;;;5017590;28;20291;-88
2023/01/19 08:19:36;;;;;;;;;;;2.00;99.90;;;;;;5017396;28;19909;-88
2023/01/19 08:22:02;;;;;;;;;;;2.10;99.90;;;;;;5017184;28;19915;-88
2023/01/19 08:24:28;;;;;;;;;;;2.20;99.90;;;;;;5035111;28;19909;-88
2023/01/19 08:27:00;;;;;;;;;;;2.20;99.90;;;;;;5017427;28;19913;-88
2023/01/19 08:29:26;;;;;;;;;;;2.30;99.90;;;;;;5017373;28;19909;-88
2023/01/19 08:31:54;;;;;;;;;;;2.30;99.90;;;;;;5017147;28;20367;-88
2023/01/19 08:34:19;;;;;;;;;;;2.40;99.90;;;;;;5017420;28;20363;-88
2023/01/19 08:36:45;;;;;;;;;;;2.40;99.90;;;;;;5016390;28;19916;-88
2023/01/19 08:39:13;;;;;;;;;;;2.40;99.90;;;;;;5017239;28;19979;-88
2023/01/19 08:41:39;;;;;;;;;;;2.50;99.90;;;;;;5017503;28;19909;-88
2023/01/19 08:44:04;;;;;;;;;;;2.50;99.90;;;;;;5017649;28;19916;-87
2023/01/19 08:46:30;;;;;;;;;;;2.50;99.90;;;;;;5035157;28;19909;-88
2023/01/19 08:48:56;;;;;;;;;;;2.60;99.90;;;;;;5016811;28;19921;-87
2023/01/19 08:51:21;;;;;;;;;;;2.70;99.90;;;;;;5016388;28;19909;-90
2023/01/19 08:53:47;;;;;;;;;;;2.70;99.90;;;;;;5016843;28;19913;-88
2023/01/19 08:56:13;;;;;;;;;;;2.80;99.90;;;;;;5016700;28;19920;-87
2023/01/19 08:58:39;;;;;;;;;;;2.70;99.90;;;;;;5016533;28;19913;-88
2023/01/19 09:01:05;;;;;;;;;;;2.80;99.90;;;;;;5016299;28;19913;-87
2023/01/19 09:03:31;;;;;;;;;;;2.90;99.90;;;;;;5016537;28;19909;-87
2023/01/19 09:05:56;;;;;;;;;;;2.90;99.90;;;;;;5016600;28;19909;-88
2023/01/19 09:08:21;;;;;;;;;;;2.90;99.90;;;;;;5016553;28;19909;-87
2023/01/19 09:10:48;;;;;;;;;;;2.90;99.90;;;;;;5016455;28;19963;-87
2023/01/19 09:13:14;;;;;;;;;;;3.10;99.90;;;;;;5016225;28;19913;-88
2023/01/19 09:15:40;;;;;;;;;;;3.10;99.90;;;;;;5016581;28;19916;-87
2023/01/19 09:18:09;;;;;;;;;;;3.10;99.90;;;;;;5016318;28;20010;-87
2023/01/19 09:20:37;;;;;;;;;;;3.00;99.90;;;;;;5016291;28;19920;-88
2023/01/19 09:23:03;;;;;;;;;;;3.10;99.90;;;;;;5015907;28;19916;-88
2023/01/19 09:25:28;;;;;;;;;;;3.10;99.90;;;;;;5016388;28;19910;-87
2023/01/19 09:27:55;;;;;;;;;;;3.20;99.90;;;;;;5016291;28;19975;-88
2023/01/19 09:30:20;;;;;;;;;;;3.30;99.90;;;;;;5033716;28;20523;-87
2023/01/19 09:32:46;;;;;;;;;;;3.30;99.90;;;;;;5033620;28;19909;-87
2023/01/19 09:35:11;;;;;;;;;;;3.40;99.90;;;;;;5016237;28;19909;-87
2023/01/19 09:37:37;;;;;;;;;;;3.30;99.90;;;;;;5033646;28;19913;-87
2023/01/19 09:40:03;;;;;;;;;;;3.30;99.90;;;;;;5015955;28;19920;-88
2023/01/19 09:42:29;;;;;;;;;;;3.30;99.90;;;;;;5015758;28;20310;-87
2023/01/19 09:44:54;;;;;;;;;;;3.50;99.90;;;;;;5033443;28;19954;-87
2023/01/19 09:47:29;;;;;;;;;;;3.50;99.90;;;;;;5016041;28;19975;-88
2023/01/19 09:49:58;;;;;;;;;;;3.40;99.90;;;;;;5015406;28;19917;-87
2023/01/19 09:52:24;;;;;;;;;;;3.30;99.90;;;;;;5015944;28;19913;-88
2023/01/19 09:54:53;;;;;;;;;;;3.30;99.90;;;;;;5016101;28;19913;-86
2023/01/19 09:57:19;;;;;;;;;;;3.20;99.90;;;;;;5016311;28;19919;-87
2023/01/19 09:59:48;;;;;;;;;;;3.20;99.90;;;;;;5015805;28;19909;-88
2023/01/19 10:02:19;;;;;;;;;;;3.10;99.90;;;;;;5015664;28;19916;-87
2023/01/19 10:04:52;;;;;;;;;;;3.10;99.90;;;;;;5016191;28;19959;-87
2023/01/19 10:07:34;;;;;;;;;;;3.00;99.90;;;;;;5015996;28;19909;-86
2023/01/19 10:10:08;;;;;;;;;;;3.00;99.90;;;;;;5016385;28;19909;-87
2023/01/19 10:12:53;;;;;;;;;;;3.00;99.90;;;;;;5015878;28;19913;-85
2023/01/19 10:15:36;;;;;;;;;;;2.90;99.90;;;;;;5032901;28;19916;-87
2023/01/19 10:18:05;;;;;;;;;;;2.80;99.90;;;;;;5033643;28;19913;-86
2023/01/19 10:20:34;;;;;;;;;;;2.90;99.90;;;;;;5015879;28;19917;-87
2023/01/19 10:23:00;;;;;;;;;;;3.00;99.90;;;;;;5015478;28;19910;-85
2023/01/19 10:25:26;;;;;;;;;;;3.00;99.90;;;;;;5015489;28;19909;-88
2023/01/19 10:27:51;;;;;;;;;;;3.10;99.90;;;;;;5014633;28;19992;-89
2023/01/19 10:30:22;;;;;;;;;;;3.20;99.90;;;;;;5014875;28;19909;-89
2023/01/19 10:32:47;;;;;;;;;;;3.30;99.90;;;;;;5014746;28;20008;-89
2023/01/19 10:35:20;;;;;;;;;;;3.40;99.90;;;;;;5015137;28;19960;-88
2023/01/19 10:37:46;;;;;;;;;;;3.40;99.90;;;;;;5032832;28;19913;-90
2023/01/19 10:40:11;;;;;;;;;;;3.40;99.90;;;;;;5015074;28;20416;-88
2023/01/19 10:42:38;;;;;;;;;;;3.50;99.90;;;;;;5014737;28;19955;-90
2023/01/19 10:45:24;;;;;;;;;;;3.60;99.90;;;;;;5015274;28;19921;-90
2023/01/19 10:47:51;;;;;;;;;;;3.70;99.90;;;;;;5015110;28;19916;-89
2023/01/19 10:50:31;;;;;;;;;;;3.90;99.90;;;;;;5032629;28;19917;-90
2023/01/19 10:53:00;;;;;;;;;;;4.00;99.90;;;;;;5014837;28;19991;-90
2023/01/19 10:55:27;;;;;;;;;;;4.00;99.90;;;;;;5032724;28;19992;-89
2023/01/19 10:57:53;;;;;;;;;;;4.00;99.90;;;;;;5014848;28;19920;-89
2023/01/19 11:00:28;;;;;;;;;;;3.90;99.90;;;;;;5016111;28;20394;-88
2023/01/19 11:02:53;;;;;;;;;;;3.90;99.90;;;;;;5018601;28;20416;-89
2023/01/19 11:05:26;;;;;;;;;;;4.00;99.90;;;;;;5018720;28;19909;-89
2023/01/19 11:07:51;;;;;;;;;;;4.00;99.90;;;;;;5018748;28;19910;-90
2023/01/19 11:10:22;;;;;;;;;;;4.20;99.90;;;;;;5018728;28;19910;-86
2023/01/19 11:13:11;;;;;;;;;;;4.20;99.90;;;;;;5018850;28;19941;-87
2023/01/19 11:15:42;;;;;;;;;;;4.30;99.90;;;;;;5018895;28;20012;-87
2023/01/19 11:18:20;;;;;;;;;;;4.40;99.90;;;;;;5018606;28;20359;-87
2023/01/19 11:20:49;;;;;;;;;;;4.50;99.90;;;;;;5018871;28;19909;-83
2023/01/19 11:23:15;;;;;;;;;;;4.70;99.90;;;;;;5036346;28;19951;-87
2023/01/19 11:25:44;;;;;;;;;;;5.00;99.90;;;;;;5018933;28;19909;-87
2023/01/19 11:28:16;;;;;;;;;;;5.70;99.90;;;;;;5018539;28;19970;-87
2023/01/19 11:30:52;;;;;;;;;;;6.30;99.90;;;;;;5018416;28;20051;-87
2023/01/19 11:33:24;;;;;;;;;;;6.30;99.90;;;;;;5017938;28;19916;-86
2023/01/19 11:36:00;;;;;;;;;;;6.20;99.90;;;;;;5018346;28;20502;-86
2023/01/19 11:38:26;;;;;;;;;;;6.40;99.90;;;;;;5018524;28;19955;-86
2023/01/19 11:40:53;;;;;;;;;;;6.20;99.90;;;;;;5017771;28;20348;-84
2023/01/19 11:43:20;;;;;;;;;;;6.10;99.90;;;;;;5018763;28;19960;-84
2023/01/19 11:45:45;;;;;;;;;;;6.20;99.90;;;;;;5035813;28;19977;-84
2023/01/19 11:48:17;;;;;;;;;;;6.20;99.90;;;;;;5017847;28;19994;-85
2023/01/19 11:50:46;;;;;;;;;;;6.30;99.90;;;;;;5041268;23;20394;-85
2023/01/19 11:53:18;;;;;;;;;;;6.40;99.90;;;;;;5034525;28;20325;-85
2023/01/19 11:55:58;;;;;;;;;;;6.00;99.90;;;;;;5035056;28;19909;-83
2023/01/19 11:58:32;;;;;;;;;;;5.70;99.90;;;;;;5036282;28;19982;-86
2023/01/19 12:00:57;;;;;;;;;;;5.60;99.90;;;;;;5036449;28;19909;-84
2023/01/19 12:03:38;;;;;;;;;;;5.60;99.90;;;;;;5036659;28;19909;-88
2023/01/19 12:06:22;;;;;;;;;;;;;;;;;;;;;
2023/01/19 12:09:19;;;;;;;;;;;5.20;99.90;;;;;;5036041;28;19916;-82
2023/01/19 12:12:16;;;;;;;;;;;5.20;99.90;;;;;;4976606;28;19941;-83
2023/01/19 12:15:03;;;;;;;;;;;5.40;99.90;;;;;;5009597;28;19992;-85
2023/01/19 12:17:51;;;;;;;;;;;5.00;99.90;;;;;;5033069;28;20058;-83
2023/01/19 12:20:38;;;;;;;;;;;4.90;99.90;;;;;;5000419;22;20379;-85
2023/01/19 12:23:26;;;;;;;;;;;4.90;99.90;;;;;;5014225;28;19921;-83
2023/01/19 12:29:20;;;;;;;;;;;5.00;99.90;;;;;;5015580;28;19915;-85
2023/01/19 12:32:06;;;;;;;;;;;5.00;99.90;;;;;;5043451;22;19929;-88
2023/01/19 12:34:39;;;;;;;;;;;5.30;99.90;;;;;;5016846;28;20008;-88
2023/01/19 12:37:05;;;;;;;;;;;5.40;99.90;;;;;;5016676;28;20397;-88
2023/01/19 12:39:31;;;;;;;;;;;5.60;99.90;;;;;;5034620;28;19913;-87
2023/01/19 12:42:11;;;;;;;;;;;5.60;99.90;;;;;;5016478;28;19916;-88
2023/01/19 12:44:37;;;;;;;;;;;5.30;99.90;;;;;;5016726;28;19948;-87
2023/01/19 12:47:14;;;;;;;;;;;5.50;99.90;;;;;;5016692;28;19964;-88
2023/01/19 12:49:44;;;;;;;;;;;5.60;99.90;;;;;;5016632;28;19909;-87
2023/01/19 12:52:10;;;;;;;;;;;5.40;99.90;;;;;;5016211;28;19963;-87
2023/01/19 12:54:36;;;;;;;;;;;5.30;99.90;;;;;;5016535;28;19960;-88
2023/01/19 12:57:07;;;;;;;;;;;5.00;99.90;;;;;;5016356;28;19965;-87
2023/01/19 12:59:34;;;;;;;;;;;4.70;99.90;;;;;;5016510;28;19909;-87
2023/01/19 13:02:29;;;;;;;;;;;4.60;99.90;;;;;;5016027;28;19909;-87
2023/01/19 13:05:14;;;;;;;;;;;4.40;99.90;;;;;;5016293;28;19932;-88
2023/01/19 13:07:59;;;;;;;;;;;4.40;99.90;;;;;;5016303;28;20362;-88
2023/01/19 13:10:43;;;;;;;;;;;4.40;99.90;;;;;;5016142;28;19914;-88
2023/01/19 13:13:27;;;;;;;;;;;4.30;99.90;;;;;;5015764;28;19920;-88
2023/01/19 13:15:54;;;;;;;;;;;4.30;99.90;;;;;;5016136;28;20362;-88
2023/01/19 13:18:21;;;;;;;;;;;4.40;99.90;;;;;;5015966;28;19937;-87
2023/01/19 13:20:51;;;;;;;;;;;4.40;99.90;;;;;;5015887;28;19914;-88
2023/01/19 13:23:19;;;;;;;;;;;4.40;99.90;;;;;;5015463;28;19909;-87
2023/01/19 13:25:49;;;;;;;;;;;4.60;99.90;;;;;;5015834;28;19909;-88
2023/01/19 13:28:16;;;;;;;;;;;4.70;99.90;;;;;;5016106;28;20363;-87
2023/01/19 13:30:55;;;;;;;;;;;4.60;99.90;;;;;;5015773;28;20367;-88
2023/01/19 13:33:22;;;;;;;;;;;4.60;99.90;;;;;;5033339;28;19924;-88
2023/01/19 13:35:50;;;;;;;;;;;4.60;99.90;;;;;;5015812;28;19909;-88
2023/01/19 13:38:15;;;;;;;;;;;4.50;99.90;;;;;;5015679;28;19913;-88
2023/01/19 13:40:43;;;;;;;;;;;4.80;99.90;;;;;;5015673;28;19917;-88
2023/01/19 13:43:28;;;;;;;;;;;4.90;99.90;;;;;;5015277;28;19952;-88
2023/01/19 13:45:54;;;;;;;;;;;5.00;99.90;;;;;;5015618;28;19909;-88
2023/01/19 13:48:23;;;;;;;;;;;5.20;99.90;;;;;;5015445;28;19974;-88
2023/01/19 13:50:56;;;;;;;;;;;5.30;99.90;;;;;;5033164;28;20329;-88
2023/01/19 13:53:23;;;;;;;;;;;5.30;99.90;;;;;;5015422;28;19917;-88
2023/01/19 13:56:08;;;;;;;;;;;5.50;99.90;;;;;;5015384;28;19909;-88
2023/01/19 13:58:34;;;;;;;;;;;5.90;99.90;;;;;;5018858;28;19913;-88
2023/01/19 14:00:59;;;;;;;;;;;5.70;99.90;;;;;;5015210;28;19909;-88
2023/01/19 14:03:25;;;;;;;;;;;5.70;99.90;;;;;;5015291;28;20271;-87
2023/01/19 14:05:52;;;;;;;;;;;5.70;99.90;;;;;;5015296;28;19909;-88
2023/01/19 14:08:18;;;;;;;;;;;5.50;99.90;;;;;;5032834;28;19916;-88
2023/01/19 14:10:46;;;;;;;;;;;5.40;99.90;;;;;;5015236;28;19916;-88
2023/01/19 14:13:13;;;;;;;;;;;5.20;99.90;;;;;;5014911;28;20286;-88
2023/01/19 14:15:39;;;;;;;;;;;5.20;99.90;;;;;;5032771;28;19909;-88
2023/01/19 14:18:08;;;;;;;;;;;5.10;99.90;;;;;;5014993;28;19913;-88
2023/01/19 14:20:36;;;;;;;;;;;4.90;99.90;;;;;;5032647;28;19910;-87
2023/01/19 14:23:01;;;;;;;;;;;4.80;99.90;;;;;;5032527;28;19909;-88
2023/01/19 14:25:30;;;;;;;;;;;4.60;99.90;;;;;;5015092;28;19909;-88
2023/01/19 14:28:14;;;;;;;;;;;4.60;99.90;;;;;;5014912;28;19914;-87
2023/01/19 14:30:51;;;;;;;;;;;4.50;99.90;;;;;;5032569;28;19929;-88
2023/01/19 14:33:39;;;;;;;;;;;4.60;99.90;;;;;;5014606;28;20094;-87
2023/01/19 14:36:15;;;;;;;;;;;4.50;99.90;;;;;;5031933;28;19917;-88
2023/01/19 14:38:44;;;;;;;;;;;4.60;99.90;;;;;;5014768;28;20016;-86
2023/01/19 14:41:10;;;;;;;;;;;4.60;99.90;;;;;;5014667;28;19909;-88
2023/01/19 14:43:36;;;;;;;;;;;4.60;99.90;;;;;;5014658;28;19979;-87
2023/01/19 14:46:01;;;;;;;;;;;4.40;99.90;;;;;;5014918;28;19909;-88
2023/01/19 14:48:30;;;;;;;;;;;4.40;99.90;;;;;;5032484;28;19916;-88
2023/01/19 14:50:59;;;;;;;;;;;4.50;99.90;;;;;;5014617;28;19916;-88